createdAt,value
2018-11-04T00:02:09.711Z,34.27
2018-11-04T00:04:39.094Z,35.30
2018-11-04T00:07:08.567Z,37.50
2018-11-04T00:09:38.097Z,33.33
2018-11-04T00:12:07.462Z,32.53
2018-11-04T00:14:36.904Z,31.63
2018-11-04T00:17:06.428Z,32.77
2018-11-04T00:19:35.803Z,37.30
2018-11-04T00:22:05.270Z,35.77
2018-11-04T00:24:34.640Z,35.27
2018-11-04T00:27:04.013Z,33.33
2018-11-04T00:29:33.466Z,47.83
2018-11-04T00:32:02.757Z,33.17
2018-11-04T00:34:32.189Z,33.03
2018-11-04T00:37:01.548Z,32.70
2018-11-04T00:39:30.922Z,34.43
2018-11-04T00:42:00.264Z,32.87
2018-11-04T00:44:29.760Z,31.30
2018-11-04T00:46:59.223Z,35.37
2018-11-04T00:49:28.564Z,31.90
2018-11-04T00:51:58.100Z,36.63
2018-11-04T00:54:27.463Z,37.70
2018-11-04T00:56:56.813Z,32.50
2018-11-04T00:59:26.156Z,35.63
2018-11-04T01:01:55.555Z,29.77
2018-11-04T01:04:24.924Z,32.43
2018-11-04T01:06:54.307Z,30.67
2018-11-04T01:09:23.648Z,36.97
2018-11-04T01:11:53.095Z,39.50
2018-11-04T01:14:22.466Z,33.93
2018-11-04T01:16:51.877Z,38.00
2018-11-04T01:19:21.308Z,34.77
2018-11-04T01:21:50.748Z,30.43
2018-11-04T01:24:20.078Z,34.10
2018-11-04T01:26:49.453Z,33.00
2018-11-04T01:29:18.840Z,33.93
2018-11-04T01:31:48.265Z,32.13
2018-11-04T01:34:17.639Z,33.50
2018-11-04T01:36:47.053Z,34.57
2018-11-04T01:39:16.408Z,35.10
2018-11-04T01:41:45.794Z,33.90
2018-11-04T01:44:15.179Z,34.77
2018-11-04T01:46:44.619Z,37.83
2018-11-04T01:49:14.008Z,38.33
2018-11-04T01:51:43.391Z,33.37
2018-11-04T01:54:12.807Z,36.90
2018-11-04T01:56:42.272Z,34.90
2018-11-04T01:59:11.601Z,34.43
2018-11-04T02:01:41.021Z,36.97
2018-11-04T02:04:10.387Z,52.73
2018-11-04T02:06:39.779Z,31.50
2018-11-04T02:09:10.347Z,34.90
2018-11-04T02:11:39.835Z,32.17
2018-11-04T02:14:09.723Z,36.73
2018-11-04T02:16:39.143Z,33.80
2018-11-04T02:19:08.504Z,29.40
2018-11-04T02:21:37.869Z,34.30
2018-11-04T02:24:07.237Z,36.27
2018-11-04T02:26:36.625Z,29.27
2018-11-04T02:29:06.181Z,32.17
2018-11-04T02:31:35.519Z,34.43
2018-11-04T02:34:04.908Z,35.33
2018-11-04T02:36:34.258Z,36.87
2018-11-04T02:39:03.804Z,37.30
2018-11-04T02:41:33.159Z,37.20
2018-11-04T02:44:02.551Z,43.47
2018-11-04T02:46:31.930Z,42.03
2018-11-04T02:49:01.306Z,32.17
2018-11-04T02:51:30.692Z,46.53
2018-11-04T02:54:00.077Z,32.00
2018-11-04T02:56:29.492Z,34.97
2018-11-04T02:58:58.853Z,31.83
2018-11-04T03:01:28.208Z,33.90
2018-11-04T03:03:57.584Z,36.50
2018-11-04T03:06:27.007Z,33.80
2018-11-04T03:08:56.381Z,30.13
2018-11-04T03:11:25.734Z,28.03
2018-11-04T03:13:55.088Z,33.33
2018-11-04T03:16:24.397Z,33.33
2018-11-04T03:18:53.810Z,32.23
2018-11-04T03:21:23.138Z,37.07
2018-11-04T03:23:52.501Z,31.00
2018-11-04T03:26:21.836Z,33.57
2018-11-04T03:28:51.225Z,27.63
2018-11-04T03:31:20.535Z,35.63
2018-11-04T03:33:49.931Z,31.70
2018-11-04T03:36:19.305Z,27.30
2018-11-04T03:38:48.707Z,25.93
2018-11-04T03:41:18.053Z,35.77
2018-11-04T03:43:47.460Z,31.30
2018-11-04T03:46:16.840Z,26.87
2018-11-04T03:48:46.217Z,27.30
2018-11-04T03:51:15.567Z,35.17
2018-11-04T03:53:44.972Z,32.33
2018-11-04T03:56:14.352Z,26.10
2018-11-04T03:58:43.683Z,23.93
2018-11-04T04:01:13.113Z,25.00
2018-11-04T04:03:42.489Z,25.70
2018-11-04T04:06:11.849Z,36.53
2018-11-04T04:08:41.176Z,30.30
2018-11-04T04:11:10.560Z,30.20
2018-11-04T04:13:39.903Z,24.97
2018-11-04T04:16:09.299Z,28.70
2018-11-04T04:18:38.646Z,28.50
2018-11-04T04:21:09.048Z,25.47
2018-11-04T04:23:39.199Z,24.60
2018-11-04T04:26:09.819Z,25.53
2018-11-04T04:28:39.220Z,28.43
2018-11-04T04:31:08.588Z,31.63
2018-11-04T04:33:37.951Z,28.23
2018-11-04T04:36:07.311Z,24.27
2018-11-04T04:38:36.652Z,27.40
2018-11-04T04:41:06.605Z,27.63
2018-11-04T04:43:35.949Z,23.80
2018-11-04T04:46:05.383Z,30.33
2018-11-04T04:48:34.737Z,21.37
2018-11-04T04:51:04.127Z,26.50
2018-11-04T04:53:33.440Z,26.53
2018-11-04T04:56:02.783Z,28.53
2018-11-04T04:58:32.141Z,25.77
2018-11-04T05:01:01.511Z,24.67
2018-11-04T05:03:30.839Z,23.77
2018-11-04T05:06:00.203Z,24.03
2018-11-04T05:08:29.581Z,23.40
2018-11-04T05:10:58.980Z,22.27
2018-11-04T05:13:28.334Z,23.70
2018-11-04T05:15:57.730Z,21.40
2018-11-04T05:18:27.048Z,25.73
2018-11-04T05:20:56.379Z,22.07
2018-11-04T05:23:25.675Z,21.60
2018-11-04T05:25:55.039Z,23.50
2018-11-04T05:28:24.425Z,22.70
2018-11-04T05:30:53.850Z,23.10
2018-11-04T05:33:23.180Z,21.13
2018-11-04T05:35:52.554Z,18.33
2018-11-04T05:38:21.976Z,18.67
2018-11-04T05:40:51.303Z,19.07
2018-11-04T05:43:20.653Z,24.73
2018-11-04T05:45:50.052Z,18.27
2018-11-04T05:48:19.524Z,22.70
2018-11-04T05:50:48.854Z,22.90
2018-11-04T05:53:18.227Z,23.47
2018-11-04T05:55:47.592Z,24.07
2018-11-04T05:58:16.980Z,19.97
2018-11-04T06:00:46.343Z,20.27
2018-11-04T06:03:15.722Z,21.27
2018-11-04T06:05:45.084Z,22.23
2018-11-04T06:08:14.470Z,20.50
2018-11-04T06:10:43.839Z,21.77
2018-11-04T06:13:13.202Z,22.83
2018-11-04T06:15:42.541Z,22.27
2018-11-04T06:18:11.929Z,19.10
2018-11-04T06:20:41.280Z,19.57
2018-11-04T06:23:10.668Z,19.07
2018-11-04T06:25:40.029Z,18.87
2018-11-04T06:28:09.396Z,24.30
2018-11-04T06:30:38.752Z,21.37
2018-11-04T06:33:08.113Z,19.53
2018-11-04T06:35:37.463Z,19.50
2018-11-04T06:38:06.827Z,17.00
2018-11-04T06:40:36.219Z,18.77
2018-11-04T06:43:05.593Z,19.47
2018-11-04T06:45:34.952Z,16.57
2018-11-04T06:48:04.399Z,18.43
2018-11-04T06:50:33.705Z,16.47
2018-11-04T06:53:03.075Z,19.17
2018-11-04T06:55:32.380Z,20.50
2018-11-04T06:58:01.764Z,22.10
2018-11-04T07:00:31.088Z,19.13
2018-11-04T07:03:00.389Z,16.53
2018-11-04T07:05:29.761Z,19.70
2018-11-04T07:07:59.099Z,16.27
2018-11-04T07:10:28.448Z,18.60
2018-11-04T07:12:57.792Z,20.60
2018-11-04T07:15:27.130Z,18.83
2018-11-04T07:17:56.740Z,20.20
2018-11-04T07:20:26.059Z,18.90
2018-11-04T07:22:55.365Z,18.60
2018-11-04T07:25:24.802Z,18.90
2018-11-04T07:27:54.116Z,17.90
2018-11-04T07:30:23.472Z,19.30
2018-11-04T07:32:52.776Z,18.83
2018-11-04T07:35:22.151Z,18.13
2018-11-04T07:37:51.492Z,18.97
2018-11-04T07:40:20.819Z,20.07
2018-11-04T07:42:50.156Z,19.20
2018-11-04T07:45:19.541Z,18.77
2018-11-04T07:47:49.039Z,17.40
2018-11-04T07:50:18.422Z,18.27
2018-11-04T07:52:47.810Z,16.97
2018-11-04T07:55:17.208Z,17.80
2018-11-04T07:57:46.582Z,16.70
2018-11-04T08:00:16.746Z,18.77
2018-11-04T08:02:46.107Z,15.93
2018-11-04T08:05:15.549Z,17.53
2018-11-04T08:07:44.919Z,14.93
2018-11-04T08:10:14.938Z,15.53
2018-11-04T08:12:44.316Z,17.13
2018-11-04T08:15:13.706Z,16.80
2018-11-04T08:17:43.073Z,18.27
2018-11-04T08:20:12.448Z,15.87
2018-11-04T08:22:41.833Z,13.93
2018-11-04T08:25:11.252Z,15.33
2018-11-04T08:27:40.649Z,18.67
2018-11-04T08:30:10.167Z,16.67
2018-11-04T08:32:39.569Z,18.63
2018-11-04T08:35:08.925Z,14.47
2018-11-04T08:37:38.313Z,13.70
2018-11-04T08:40:07.884Z,14.00
2018-11-04T08:42:37.199Z,15.33
2018-11-04T08:45:07.068Z,12.73
2018-11-04T08:47:36.479Z,14.53
2018-11-04T08:50:07.156Z,15.50
2018-11-04T08:52:36.634Z,15.43
2018-11-04T08:55:06.841Z,11.83
2018-11-04T08:57:36.208Z,14.47
2018-11-04T09:00:07.028Z,11.23
2018-11-04T09:02:36.360Z,13.70
2018-11-04T09:05:06.252Z,12.80
2018-11-04T09:07:35.824Z,13.77
2018-11-04T09:10:07.471Z,13.07
2018-11-04T09:12:36.875Z,12.30
2018-11-04T09:15:07.394Z,12.03
2018-11-04T09:17:36.832Z,11.30
2018-11-04T09:20:07.908Z,12.53
2018-11-04T09:22:37.337Z,13.47
2018-11-04T09:25:07.217Z,11.30
2018-11-04T09:27:36.685Z,11.50
2018-11-04T09:30:07.175Z,12.60
2018-11-04T09:32:36.576Z,10.80
2018-11-04T09:35:06.638Z,10.20
2018-11-04T09:37:35.913Z,10.50
2018-11-04T09:40:06.272Z,9.50
2018-11-04T09:42:35.635Z,10.60
2018-11-04T09:45:05.414Z,10.20
2018-11-04T09:47:34.796Z,10.93
2018-11-04T09:50:04.574Z,10.63
2018-11-04T09:52:33.848Z,10.70
2018-11-04T09:55:03.232Z,9.87
2018-11-04T09:57:32.677Z,9.27
2018-11-04T10:00:02.038Z,11.27
2018-11-04T10:02:31.433Z,10.50
2018-11-04T10:05:00.802Z,10.70
2018-11-04T10:07:30.239Z,9.60
2018-11-04T10:09:59.686Z,9.60
2018-11-04T10:12:29.145Z,11.10
2018-11-04T10:14:58.599Z,10.33
2018-11-04T10:17:28.044Z,10.37
2018-11-04T10:19:57.639Z,9.90
2018-11-04T10:22:26.895Z,11.17
2018-11-04T10:24:56.891Z,10.93
2018-11-04T10:27:26.425Z,11.10
2018-11-04T10:29:55.783Z,9.80
2018-11-04T10:32:25.166Z,10.37
2018-11-04T10:34:54.814Z,10.70
2018-11-04T10:37:24.295Z,10.53
2018-11-04T10:39:53.648Z,13.50
2018-11-04T10:42:23.086Z,12.97
2018-11-04T10:44:52.441Z,12.97
2018-11-04T10:47:21.780Z,11.37
2018-11-04T10:49:51.807Z,11.00
2018-11-04T10:52:21.816Z,10.70
2018-11-04T10:54:51.424Z,11.33
2018-11-04T10:57:20.751Z,11.00
2018-11-04T10:59:50.126Z,11.73
2018-11-04T11:02:19.480Z,10.07
2018-11-04T11:04:48.904Z,11.03
2018-11-04T11:07:18.220Z,9.90
2018-11-04T11:09:47.561Z,12.00
2018-11-04T11:12:16.928Z,10.80
2018-11-04T11:14:46.320Z,12.37
2018-11-04T11:17:15.640Z,11.13
2018-11-04T11:19:44.940Z,10.13
2018-11-04T11:22:14.318Z,10.67
2018-11-04T11:24:43.628Z,11.20
2018-11-04T11:27:13.156Z,11.63
2018-11-04T11:29:42.476Z,12.27
2018-11-04T11:32:11.860Z,10.57
2018-11-04T11:34:41.212Z,11.17
2018-11-04T11:37:10.648Z,9.93
2018-11-04T11:39:39.966Z,10.63
2018-11-04T11:42:09.279Z,10.50
2018-11-04T11:44:38.702Z,11.30
2018-11-04T11:47:08.018Z,11.27
2018-11-04T11:49:37.341Z,12.10
2018-11-04T11:52:06.712Z,12.10
2018-11-04T11:54:36.035Z,11.10
2018-11-04T11:57:05.416Z,11.53
2018-11-04T11:59:34.749Z,9.77
2018-11-04T12:02:04.143Z,11.00
2018-11-04T12:04:33.470Z,10.50
2018-11-04T12:07:02.872Z,10.67
2018-11-04T12:09:32.193Z,11.47
2018-11-04T12:12:01.570Z,12.80
2018-11-04T12:14:30.905Z,18.83
2018-11-04T12:17:00.248Z,11.63
2018-11-04T12:19:29.557Z,10.23
2018-11-04T12:21:58.928Z,10.77
2018-11-04T12:24:28.228Z,11.93
2018-11-04T12:26:57.633Z,11.03
2018-11-04T12:29:26.939Z,12.07
2018-11-04T12:31:56.269Z,12.10
2018-11-04T12:34:25.585Z,11.07
2018-11-04T12:36:54.992Z,11.43
2018-11-04T12:39:24.367Z,11.03
2018-11-04T12:41:53.767Z,11.60
2018-11-04T12:44:23.099Z,12.50
2018-11-04T12:46:52.465Z,12.27
2018-11-04T12:49:21.798Z,11.47
2018-11-04T12:51:51.202Z,11.27
2018-11-04T12:54:20.532Z,12.03
2018-11-04T12:56:50.066Z,13.00
2018-11-04T12:59:19.424Z,12.10
2018-11-04T13:01:48.811Z,12.43
2018-11-04T13:04:18.231Z,14.73
2018-11-04T13:06:47.579Z,11.90
2018-11-04T13:09:17.005Z,12.67
2018-11-04T13:11:46.341Z,12.53
2018-11-04T13:14:15.735Z,12.20
2018-11-04T13:16:45.060Z,14.00
2018-11-04T13:19:14.416Z,13.33
2018-11-04T13:21:43.761Z,12.97
2018-11-04T13:24:13.098Z,21.20
2018-11-04T13:26:42.536Z,13.00
2018-11-04T13:29:11.909Z,14.73
2018-11-04T13:31:41.279Z,12.40
2018-11-04T13:34:10.630Z,11.30
2018-11-04T13:36:40.013Z,12.70
2018-11-04T13:39:10.021Z,11.30
2018-11-04T13:41:39.495Z,11.37
2018-11-04T13:44:08.906Z,12.70
2018-11-04T13:46:38.451Z,12.97
2018-11-04T13:49:07.825Z,12.63
2018-11-04T13:51:37.168Z,13.40
2018-11-04T13:54:06.558Z,15.30
2018-11-04T13:56:35.895Z,15.30
2018-11-04T13:59:05.231Z,14.20
2018-11-04T14:01:34.558Z,14.30
2018-11-04T14:04:03.920Z,13.93
2018-11-04T14:06:33.435Z,14.90
2018-11-04T14:09:02.820Z,14.60
2018-11-04T14:11:32.252Z,16.83
2018-11-04T14:14:01.577Z,13.43
2018-11-04T14:16:30.963Z,17.93
2018-11-04T14:19:00.257Z,13.93
2018-11-04T14:21:29.606Z,14.93
2018-11-04T14:23:59.278Z,13.90
2018-11-04T14:26:28.548Z,14.90
2018-11-04T14:28:57.859Z,16.07
2018-11-04T14:31:27.199Z,15.87
2018-11-04T14:33:56.566Z,13.17
2018-11-04T14:36:25.945Z,14.60
2018-11-04T14:38:55.346Z,11.77
2018-11-04T14:41:24.712Z,18.47
2018-11-04T14:43:54.043Z,15.40
2018-11-04T14:46:54.149Z,15.17
2018-11-04T14:49:23.509Z,14.50
2018-11-04T14:51:52.894Z,15.20
2018-11-04T14:54:22.211Z,14.53
2018-11-04T14:56:51.563Z,15.90
2018-11-04T14:59:20.970Z,13.37
2018-11-04T15:01:50.393Z,15.37
2018-11-04T15:04:19.648Z,14.13
2018-11-04T15:06:49.003Z,14.17
2018-11-04T15:09:18.404Z,15.00
2018-11-04T15:11:47.797Z,14.83
2018-11-04T15:14:17.139Z,15.40
2018-11-04T15:16:46.505Z,11.57
2018-11-04T15:19:15.833Z,13.23
2018-11-04T15:21:45.915Z,14.77
2018-11-04T15:24:15.604Z,14.70
2018-11-04T15:26:45.018Z,15.00
2018-11-04T15:29:14.383Z,14.40
2018-11-04T15:31:43.780Z,14.00
2018-11-04T15:34:13.199Z,14.00
2018-11-04T15:36:42.517Z,13.43
2018-11-04T15:39:13.163Z,13.73
2018-11-04T15:41:42.531Z,14.43
2018-11-04T15:44:11.979Z,16.03
2018-11-04T15:46:41.355Z,13.63
2018-11-04T15:49:11.046Z,14.83
2018-11-04T15:51:40.656Z,14.20
2018-11-04T15:54:10.068Z,15.47
2018-11-04T15:56:39.527Z,14.67
2018-11-04T15:59:09.056Z,13.50
2018-11-04T16:01:38.479Z,13.37
2018-11-04T16:04:07.452Z,13.90
2018-11-04T16:06:36.803Z,13.77
2018-11-04T16:09:07.771Z,11.70
2018-11-04T16:11:37.194Z,11.33
2018-11-04T16:14:06.631Z,12.83
2018-11-04T16:16:35.992Z,13.07
2018-11-04T16:19:05.396Z,12.27
2018-11-04T16:21:34.789Z,14.77
2018-11-04T16:24:04.160Z,13.23
2018-11-04T16:26:33.539Z,13.20
2018-11-04T16:29:02.905Z,13.90
2018-11-04T16:31:32.258Z,13.20
2018-11-04T16:34:01.654Z,12.80
2018-11-04T16:36:31.035Z,13.13
2018-11-04T16:39:00.421Z,11.70
2018-11-04T16:41:29.806Z,10.87
2018-11-04T16:43:59.199Z,12.37
2018-11-04T16:46:28.714Z,14.23
2018-11-04T16:48:58.040Z,13.70
2018-11-04T16:51:27.363Z,13.30
2018-11-04T16:53:56.707Z,13.03
2018-11-04T16:56:26.119Z,15.53
2018-11-04T16:58:55.467Z,15.53
2018-11-04T17:01:24.808Z,17.97
2018-11-04T17:03:54.233Z,14.97
2018-11-04T17:06:23.627Z,16.67
2018-11-04T17:08:53.029Z,17.07
2018-11-04T17:11:22.417Z,23.10
2018-11-04T17:13:51.732Z,18.03
2018-11-04T17:16:21.096Z,17.80
2018-11-04T17:18:50.472Z,15.70
2018-11-04T17:21:19.897Z,15.90
2018-11-04T17:23:49.220Z,13.83
2018-11-04T17:26:18.660Z,15.10
2018-11-04T17:28:47.960Z,14.00
2018-11-04T17:31:17.309Z,14.00
2018-11-04T17:33:46.671Z,13.17
2018-11-04T17:36:16.097Z,12.87
2018-11-04T17:38:45.645Z,14.70
2018-11-04T17:41:14.982Z,14.60
2018-11-04T17:43:44.444Z,15.03
2018-11-04T17:46:13.888Z,13.47
2018-11-04T17:48:43.314Z,13.03
2018-11-04T17:51:12.724Z,14.50
2018-11-04T17:53:42.085Z,13.70
2018-11-04T17:56:11.622Z,14.40
2018-11-04T17:58:40.984Z,15.10
2018-11-04T18:01:10.368Z,13.77
2018-11-04T18:03:39.757Z,15.40
2018-11-04T18:06:09.136Z,15.17
2018-11-04T18:08:38.588Z,15.97
2018-11-04T18:11:07.965Z,17.47
2018-11-04T18:13:37.494Z,15.20
2018-11-04T18:16:06.880Z,16.83
2018-11-04T18:18:36.213Z,16.93
2018-11-04T18:21:05.605Z,18.53
2018-11-04T18:23:35.053Z,17.27
2018-11-04T18:26:04.619Z,19.20
2018-11-04T18:28:34.037Z,16.50
2018-11-04T18:31:03.460Z,16.57
2018-11-04T18:33:32.820Z,17.30
2018-11-04T18:36:02.252Z,17.43
2018-11-04T18:38:31.639Z,17.00
2018-11-04T18:41:01.028Z,16.80
2018-11-04T18:43:30.432Z,17.80
2018-11-04T18:45:59.860Z,17.17
2018-11-04T18:48:29.433Z,17.87
2018-11-04T18:50:58.912Z,17.63
2018-11-04T18:53:28.272Z,17.50
2018-11-04T18:55:57.700Z,18.87
2018-11-04T18:58:27.106Z,16.50
2018-11-04T19:00:56.493Z,17.47
2018-11-04T19:03:25.920Z,15.70
2018-11-04T19:05:55.328Z,16.67
2018-11-04T19:08:24.794Z,18.20
2018-11-04T19:10:54.201Z,17.50
2018-11-04T19:13:23.573Z,16.27
2018-11-04T19:15:52.996Z,17.53
2018-11-04T19:18:22.366Z,17.50
2018-11-04T19:20:51.791Z,17.70
2018-11-04T19:23:21.172Z,17.93
2018-11-04T19:25:50.583Z,20.23
2018-11-04T19:28:20.179Z,18.57
2018-11-04T19:30:49.623Z,19.17
2018-11-04T19:33:19.012Z,17.37
2018-11-04T19:35:48.412Z,19.43
2018-11-04T19:38:17.835Z,17.97
2018-11-04T19:40:47.318Z,19.57
2018-11-04T19:43:17.371Z,19.30
2018-11-04T19:45:46.765Z,17.67
2018-11-04T19:48:16.188Z,18.60
2018-11-04T19:50:45.522Z,17.57
2018-11-04T19:53:15.166Z,18.40
2018-11-04T19:55:44.476Z,17.77
2018-11-04T19:58:13.857Z,19.50
2018-11-04T20:00:43.218Z,20.03
2018-11-04T20:03:12.593Z,19.10
2018-11-04T20:05:41.967Z,18.83
2018-11-04T20:08:11.317Z,18.33
2018-11-04T20:10:40.749Z,20.00
2018-11-04T20:13:15.409Z,18.97
2018-11-04T20:15:44.741Z,20.43
2018-11-04T20:18:19.468Z,20.20
2018-11-04T20:20:48.826Z,19.77
2018-11-04T20:23:19.149Z,21.87
2018-11-04T20:25:53.581Z,20.50
2018-11-04T20:28:22.948Z,21.50
2018-11-04T20:30:52.279Z,22.47
2018-11-04T20:33:21.613Z,21.63
2018-11-04T20:35:51.008Z,21.93
2018-11-04T20:38:24.587Z,23.27
2018-11-04T20:40:59.366Z,20.73
2018-11-04T20:43:28.769Z,21.10
2018-11-04T20:45:58.161Z,22.57
2018-11-04T20:48:32.758Z,21.43
2018-11-04T20:51:07.344Z,22.50
2018-11-04T20:53:37.145Z,22.90
2018-11-04T20:57:11.091Z,21.97
2018-11-04T20:59:40.513Z,22.00
2018-11-04T21:02:10.022Z,21.73
2018-11-04T21:04:39.335Z,22.10
2018-11-04T21:07:08.926Z,23.47
2018-11-04T21:09:38.358Z,21.47
2018-11-04T21:12:07.776Z,21.23
2018-11-04T21:14:37.196Z,24.60
2018-11-04T21:17:06.756Z,22.70
2018-11-04T21:19:36.192Z,23.43
2018-11-04T21:22:07.395Z,24.23
2018-11-04T21:24:36.817Z,24.00
2018-11-04T21:27:06.639Z,25.20
2018-11-04T21:29:37.045Z,25.13
2018-11-04T21:32:06.615Z,23.23
2018-11-04T21:34:36.073Z,25.23
2018-11-04T21:37:06.155Z,24.27
2018-11-04T21:39:35.554Z,22.20
2018-11-04T21:42:05.167Z,27.10
2018-11-04T21:44:34.586Z,23.87
2018-11-04T21:47:03.983Z,21.70
2018-11-04T21:49:33.308Z,23.13
2018-11-04T21:52:02.679Z,24.97
2018-11-04T21:54:32.032Z,24.33
2018-11-04T21:57:01.487Z,24.70
2018-11-04T21:59:30.956Z,24.07
2018-11-04T22:02:00.407Z,25.40
2018-11-04T22:04:30.234Z,26.30
2018-11-04T22:06:59.597Z,28.83
2018-11-04T22:09:28.934Z,26.20
2018-11-04T22:11:58.296Z,28.60
2018-11-04T22:14:27.611Z,29.20
2018-11-04T22:16:56.954Z,32.70
2018-11-04T22:19:26.406Z,31.53
2018-11-04T22:21:55.777Z,32.67
2018-11-04T22:24:25.119Z,29.90
2018-11-04T22:26:54.484Z,29.00
2018-11-04T22:29:23.858Z,33.10
2018-11-04T22:31:53.225Z,30.77
2018-11-04T22:34:22.564Z,30.87
2018-11-04T22:36:52.115Z,32.37
2018-11-04T22:39:21.473Z,33.40
2018-11-04T22:41:50.917Z,32.90
2018-11-04T22:44:20.328Z,34.20
2018-11-04T22:46:51.911Z,35.13
2018-11-04T22:49:23.103Z,35.50
2018-11-04T22:51:54.322Z,35.23
2018-11-04T22:54:25.319Z,32.53
2018-11-04T22:56:57.002Z,36.07
2018-11-04T22:59:27.925Z,32.97
2018-11-04T23:01:57.552Z,38.10
2018-11-04T23:04:32.219Z,35.60
2018-11-04T23:07:01.633Z,42.37
2018-11-04T23:09:31.004Z,33.60
2018-11-04T23:12:00.356Z,34.33
2018-11-04T23:14:29.771Z,37.67
2018-11-04T23:16:59.131Z,35.37
2018-11-04T23:19:28.527Z,38.80
2018-11-04T23:21:57.894Z,42.10
2018-11-04T23:24:27.292Z,36.33
2018-11-04T23:26:56.713Z,37.83
2018-11-04T23:29:26.080Z,43.73
2018-11-04T23:31:55.444Z,42.10
2018-11-04T23:34:24.880Z,38.00
2018-11-04T23:36:54.276Z,41.33
2018-11-04T23:39:23.685Z,38.93
2018-11-04T23:41:53.051Z,41.20
2018-11-04T23:44:22.505Z,42.03
2018-11-04T23:46:52.034Z,42.57
2018-11-04T23:49:21.433Z,41.47
2018-11-04T23:51:50.834Z,42.93
2018-11-04T23:54:20.241Z,41.90
2018-11-04T23:56:49.579Z,42.73
2018-11-04T23:59:19.004Z,41.27
